Time;durP1;ratioP1;P1;durP2;ratioP2;P2;SDS_P1;SDS_P2;PMS_P1;PMS_P2;Temp;Humidity;BMP_temperature;BMP_pressure;BME280_temperature;BME280_humidity;BME280_pressure;Samples;Min_cycle;Max_cycle;Signal;HPM_P1;HPM_P2
2022/12/24 00:02:25;;;;;;;54.70;8.32;;;;;;;;;;5030899;28;20109;-64
2022/12/24 00:04:51;;;;;;;47.60;7.53;;;;;;;;;;5031105;28;20060;-64
2022/12/24 00:07:17;;;;;;;43.72;8.05;;;;;;;;;;5030934;28;20083;-64
2022/12/24 00:09:43;;;;;;;54.50;9.07;;;;;;;;;;5030879;28;20033;-64
2022/12/24 00:12:09;;;;;;;53.45;7.07;;;;;;;;;;5034739;28;20029;-64
2022/12/24 00:14:36;;;;;;;57.75;7.80;;;;;;;;;;5034968;28;20137;-64
2022/12/24 00:17:02;;;;;;;52.78;8.93;;;;;;;;;;5034041;28;20083;-64
2022/12/24 00:19:28;;;;;;;52.63;8.60;;;;;;;;;;5033990;28;20033;-64
2022/12/24 00:21:54;;;;;;;58.17;8.27;;;;;;;;;;5034780;28;20096;-64
2022/12/24 00:24:20;;;;;;;33.92;6.15;;;;;;;;;;5034839;28;20517;-64
2022/12/24 00:26:46;;;;;;;44.30;9.10;;;;;;;;;;5034981;28;20021;-64
2022/12/24 00:29:12;;;;;;;43.00;7.35;;;;;;;;;;5033295;28;20029;-64
2022/12/24 00:31:38;;;;;;;44.15;6.63;;;;;;;;;;5034405;28;20025;-64
2022/12/24 00:34:04;;;;;;;39.05;6.45;;;;;;;;;;5034149;28;20046;-64
2022/12/24 00:36:30;;;;;;;35.53;6.47;;;;;;;;;;5034663;28;20033;-64
2022/12/24 00:38:56;;;;;;;43.95;6.10;;;;;;;;;;5034562;28;20025;-64
2022/12/24 00:41:23;;;;;;;43.25;6.32;;;;;;;;;;5034402;28;20255;-64
2022/12/24 00:43:56;;;;;;;51.22;9.05;;;;;;;;;;5034623;28;20083;-64
2022/12/24 00:46:23;;;;;;;30.30;6.03;;;;;;;;;;5033961;28;20108;-64
2022/12/24 00:48:49;;;;;;;44.33;7.63;;;;;;;;;;5034435;28;20075;-64
2022/12/24 00:51:15;;;;;;;31.60;5.78;;;;;;;;;;5034238;28;20037;-64
2022/12/24 00:53:41;;;;;;;32.15;5.30;;;;;;;;;;5034480;28;20025;-64
2022/12/24 00:56:08;;;;;;;34.13;6.15;;;;;;;;;;5033977;28;20029;-64
2022/12/24 00:58:34;;;;;;;36.13;5.97;;;;;;;;;;5034204;28;20104;-64
2022/12/24 01:01:00;;;;;;;44.42;6.07;;;;;;;;;;5033729;28;20029;-64
2022/12/24 01:03:35;;;;;;;39.40;6.25;;;;;;;;;;5032925;28;20108;-64
2022/12/24 01:06:05;;;;;;;37.45;6.70;;;;;;;;;;5033944;28;20029;-64
2022/12/24 01:08:32;;;;;;;27.10;5.72;;;;;;;;;;5034159;28;20061;-64
2022/12/24 01:10:58;;;;;;;40.42;5.90;;;;;;;;;;5033760;28;20025;-64
2022/12/24 01:13:25;;;;;;;42.10;5.32;;;;;;;;;;5033842;28;20032;-64
2022/12/24 01:15:51;;;;;;;48.47;6.28;;;;;;;;;;5033768;28;20068;-64
2022/12/24 01:18:17;;;;;;;41.20;6.57;;;;;;;;;;5033931;28;20022;-64
2022/12/24 01:20:43;;;;;;;33.40;5.55;;;;;;;;;;5033459;28;20109;-64
2022/12/24 01:23:09;;;;;;;37.40;6.28;;;;;;;;;;5033626;28;20026;-64
2022/12/24 01:25:37;;;;;;;40.80;8.00;;;;;;;;;;5033661;28;20029;-64
2022/12/24 01:28:03;;;;;;;36.03;6.63;;;;;;;;;;5033306;28;20044;-64
2022/12/24 01:30:29;;;;;;;39.95;5.82;;;;;;;;;;5033586;28;20025;-64
2022/12/24 01:32:56;;;;;;;39.42;5.55;;;;;;;;;;5033423;28;20524;-64
2022/12/24 01:35:22;;;;;;;51.38;6.65;;;;;;;;;;5033443;28;20037;-64
2022/12/24 01:37:48;;;;;;;41.45;6.55;;;;;;;;;;5033483;28;20022;-64
2022/12/24 01:45:50;;;;;;;38.90;6.40;;;;;;;;;;5033419;28;20041;-64
2022/12/24 01:48:37;;;;;;;36.67;6.03;;;;;;;;;;5033090;28;20029;-64
2022/12/24 01:51:12;;;;;;;50.78;6.82;;;;;;;;;;5032485;28;20492;-64
2022/12/24 01:53:38;;;;;;;52.53;7.15;;;;;;;;;;5020139;28;20037;-64
2022/12/24 01:56:05;;;;;;;51.60;7.40;;;;;;;;;;5020129;28;20176;-64
2022/12/24 01:58:33;;;;;;;40.00;7.85;;;;;;;;;;5016747;28;20037;-64
2022/12/24 02:00:59;;;;;;;49.88;8.18;;;;;;;;;;5019690;28;20037;-64
2022/12/24 02:03:25;;;;;;;45.33;7.70;;;;;;;;;;5020168;28;20030;-64
2022/12/24 02:05:53;;;;;;;58.33;9.93;;;;;;;;;;5020656;28;20030;-64
2022/12/24 02:08:20;;;;;;;46.58;8.68;;;;;;;;;;5022001;28;20512;-64
2022/12/24 02:10:46;;;;;;;40.25;6.88;;;;;;;;;;5015101;28;20032;-64
2022/12/24 02:13:13;;;;;;;49.22;7.35;;;;;;;;;;5014934;28;20060;-64
2022/12/24 02:15:45;;;;;;;41.60;7.60;;;;;;;;;;5017355;28;20046;-64
2022/12/24 02:18:35;;;;;;;44.40;7.82;;;;;;;;;;5017914;28;20037;-64
2022/12/24 02:21:04;;;;;;;37.50;7.13;;;;;;;;;;5016506;28;20037;-64
2022/12/24 02:23:30;;;;;;;43.90;8.45;;;;;;;;;;5023040;28;20386;-64
2022/12/24 02:25:59;;;;;;;42.72;7.70;;;;;;;;;;5022374;28;20037;-64
2022/12/24 02:28:44;;;;;;;61.08;8.07;;;;;;;;;;5021162;28;20026;-64
2022/12/24 02:31:22;;;;;;;42.53;8.32;;;;;;;;;;5024960;28;20040;-64
2022/12/24 02:34:01;;;;;;;44.55;8.77;;;;;;;;;;5031405;28;20056;-64
2022/12/24 02:36:31;;;;;;;48.10;6.63;;;;;;;;;;5031894;28;20095;-64
2022/12/24 02:39:01;;;;;;;49.05;8.25;;;;;;;;;;5032433;28;20030;-64
2022/12/24 02:42:04;;;;;;;46.15;7.03;;;;;;;;;;5032040;28;20040;-64
2022/12/24 02:44:21;;;;;;;49.15;7.80;;;;;;;;;;5032249;28;20034;-64
2022/12/24 02:46:48;;;;;;;51.50;9.95;;;;;;;;;;5032476;28;20025;-64
2022/12/24 02:49:14;;;;;;;47.13;7.88;;;;;;;;;;5032144;28;20041;-64
2022/12/24 02:51:40;;;;;;;58.97;9.48;;;;;;;;;;5032272;28;20117;-64
2022/12/24 02:54:06;;;;;;;55.53;8.40;;;;;;;;;;5032293;28;20116;-64
2022/12/24 02:56:32;;;;;;;49.63;7.50;;;;;;;;;;5031712;28;20029;-64
2022/12/24 02:59:01;;;;;;;62.22;8.18;;;;;;;;;;5032124;28;20025;-64
2022/12/24 03:01:46;;;;;;;40.25;7.10;;;;;;;;;;5032162;28;20057;-64
2022/12/24 03:04:39;;;;;;;56.80;7.80;;;;;;;;;;5032079;28;20044;-64
2022/12/24 03:07:09;;;;;;;61.42;9.05;;;;;;;;;;5030992;28;20030;-64
2022/12/24 03:09:44;;;;;;;63.17;7.82;;;;;;;;;;5031827;28;20060;-64
2022/12/24 03:12:13;;;;;;;55.88;8.00;;;;;;;;;;5032169;28;20025;-64
2022/12/24 03:14:40;;;;;;;40.70;7.40;;;;;;;;;;5031232;28;20400;-64
2022/12/24 03:17:06;;;;;;;49.22;8.32;;;;;;;;;;5031999;28;20022;-64
2022/12/24 03:19:32;;;;;;;41.60;7.65;;;;;;;;;;5031888;28;20025;-64
2022/12/24 03:22:00;;;;;;;49.33;7.20;;;;;;;;;;5032076;28;20029;-64
2022/12/24 03:24:26;;;;;;;54.67;9.55;;;;;;;;;;5031327;28;20057;-64
2022/12/24 03:26:52;;;;;;;48.22;8.00;;;;;;;;;;5032175;28;20029;-64
2022/12/24 03:29:19;;;;;;;53.00;8.10;;;;;;;;;;5031140;28;20017;-64
2022/12/24 03:31:47;;;;;;;48.17;7.28;;;;;;;;;;5031401;28;20037;-64
2022/12/24 03:34:14;;;;;;;48.42;7.95;;;;;;;;;;5030289;28;20180;-64
2022/12/24 03:36:41;;;;;;;42.50;7.65;;;;;;;;;;5031200;28;20041;-64
2022/12/24 03:39:08;;;;;;;52.05;7.38;;;;;;;;;;5030935;28;20026;-64
2022/12/24 03:41:34;;;;;;;55.55;8.32;;;;;;;;;;5030969;28;20022;-64
2022/12/24 03:44:00;;;;;;;48.55;7.78;;;;;;;;;;5032025;28;20022;-64
2022/12/24 03:46:26;;;;;;;42.70;8.50;;;;;;;;;;5034679;28;20041;-64
2022/12/24 03:48:52;;;;;;;47.80;8.07;;;;;;;;;;5035617;28;20474;-64
2022/12/24 03:51:20;;;;;;;60.67;7.70;;;;;;;;;;5035484;28;20120;-64
2022/12/24 03:53:46;;;;;;;53.40;8.73;;;;;;;;;;5035043;28;20032;-64
2022/12/24 03:56:12;;;;;;;64.20;10.13;;;;;;;;;;5035338;28;20029;-64
2022/12/24 03:58:39;;;;;;;49.72;7.60;;;;;;;;;;5035334;28;20060;-64
2022/12/24 04:01:05;;;;;;;55.17;8.18;;;;;;;;;;5035396;28;20029;-64
2022/12/24 04:03:31;;;;;;;58.80;9.70;;;;;;;;;;5035050;28;20474;-64
2022/12/24 04:06:05;;;;;;;65.35;11.18;;;;;;;;;;5035178;28;20075;-64
2022/12/24 04:08:31;;;;;;;58.72;7.57;;;;;;;;;;5034528;28;20152;-64
2022/12/24 04:10:57;;;;;;;48.85;8.60;;;;;;;;;;5035148;28;20029;-64
2022/12/24 04:13:23;;;;;;;47.72;8.10;;;;;;;;;;5035017;28;20474;-64
2022/12/24 04:16:09;;;;;;;44.53;7.95;;;;;;;;;;5034960;28;20025;-64
2022/12/24 04:18:36;;;;;;;58.63;7.97;;;;;;;;;;5034852;28;20033;-64
2022/12/24 04:21:02;;;;;;;49.05;7.63;;;;;;;;;;5035080;28;20398;-64
2022/12/24 04:23:32;;;;;;;47.25;7.22;;;;;;;;;;5034047;28;20026;-64
2022/12/24 04:26:01;;;;;;;49.13;7.57;;;;;;;;;;5033394;28;20030;-64
2022/12/24 04:28:30;;;;;;;45.33;7.25;;;;;;;;;;5033258;28;20041;-64
2022/12/24 04:31:00;;;;;;;44.15;7.43;;;;;;;;;;5033886;28;20033;-64
2022/12/24 04:33:27;;;;;;;54.13;7.70;;;;;;;;;;5033046;28;20056;-64
2022/12/24 04:35:53;;;;;;;70.40;10.75;;;;;;;;;;5034548;28;20040;-64
2022/12/24 04:38:19;;;;;;;44.10;7.65;;;;;;;;;;5033960;28;20041;-64
2022/12/24 04:40:45;;;;;;;62.00;8.70;;;;;;;;;;5034110;28;20449;-64
2022/12/24 04:43:12;;;;;;;50.55;7.95;;;;;;;;;;5033607;28;20117;-64
2022/12/24 04:45:38;;;;;;;49.83;7.80;;;;;;;;;;5032361;28;20029;-64
2022/12/24 04:48:04;;;;;;;59.55;8.35;;;;;;;;;;5032387;28;20033;-64
2022/12/24 04:50:30;;;;;;;49.67;7.28;;;;;;;;;;5032652;28;20057;-64
2022/12/24 04:52:56;;;;;;;46.63;6.95;;;;;;;;;;5032732;28;20116;-64
2022/12/24 04:55:22;;;;;;;54.08;9.20;;;;;;;;;;5032423;28;20505;-64
2022/12/24 04:57:48;;;;;;;43.65;7.32;;;;;;;;;;5032560;28;20061;-64
2022/12/24 05:00:14;;;;;;;55.08;8.93;;;;;;;;;;5034112;28;20028;-64
2022/12/24 05:02:40;;;;;;;52.00;8.38;;;;;;;;;;5034051;28;20034;-64
2022/12/24 05:05:07;;;;;;;52.97;8.07;;;;;;;;;;5034224;28;20551;-64
2022/12/24 05:07:33;;;;;;;42.90;7.13;;;;;;;;;;5033494;28;20033;-64
2022/12/24 05:09:59;;;;;;;55.40;8.23;;;;;;;;;;5034190;28;20540;-64
2022/12/24 05:12:25;;;;;;;45.03;7.50;;;;;;;;;;5033914;28;20037;-64
2022/12/24 05:14:51;;;;;;;55.10;8.82;;;;;;;;;;5033857;28;20096;-64
2022/12/24 05:17:17;;;;;;;38.78;6.82;;;;;;;;;;5034072;28;20033;-64
2022/12/24 05:19:44;;;;;;;48.25;7.88;;;;;;;;;;5033869;28;20018;-64
2022/12/24 05:27:59;;;;;;;40.65;6.70;;;;;;;;;;5031652;28;20041;-64
2022/12/24 05:30:25;;;;;;;39.35;5.55;;;;;;;;;;5031471;28;20464;-64
2022/12/24 05:32:51;;;;;;;47.63;7.05;;;;;;;;;;5031165;28;20493;-64
2022/12/24 05:35:17;;;;;;;47.13;7.10;;;;;;;;;;5030900;28;20033;-64
2022/12/24 05:37:43;;;;;;;53.42;8.32;;;;;;;;;;5031240;28;20475;-64
2022/12/24 05:40:10;;;;;;;54.17;7.60;;;;;;;;;;5031395;28;20033;-64
2022/12/24 05:42:36;;;;;;;51.72;7.00;;;;;;;;;;5030954;28;20075;-64
2022/12/24 05:45:02;;;;;;;44.95;6.93;;;;;;;;;;5031165;28;20037;-64
2022/12/24 05:47:28;;;;;;;42.17;8.10;;;;;;;;;;5031317;28;20033;-64
2022/12/24 05:49:54;;;;;;;38.78;6.65;;;;;;;;;;5030747;28;20033;-64
2022/12/24 05:52:20;;;;;;;37.78;5.70;;;;;;;;;;5031110;28;20056;-64
2022/12/24 05:54:46;;;;;;;49.72;8.45;;;;;;;;;;5030869;28;20030;-64
2022/12/24 05:57:12;;;;;;;49.33;6.95;;;;;;;;;;5031115;28;20132;-64
2022/12/24 05:59:38;;;;;;;44.05;6.57;;;;;;;;;;5032522;28;20490;-64
2022/12/24 06:02:04;;;;;;;46.42;7.07;;;;;;;;;;5033311;28;20025;-64
2022/12/24 06:04:31;;;;;;;48.33;7.07;;;;;;;;;;5032510;28;20040;-64
2022/12/24 06:06:57;;;;;;;35.22;7.75;;;;;;;;;;5032906;28;20075;-64
2022/12/24 06:09:23;;;;;;;40.00;6.35;;;;;;;;;;5033140;28;20560;-64
2022/12/24 06:11:49;;;;;;;43.08;7.30;;;;;;;;;;5032801;28;20025;-64
2022/12/24 06:14:15;;;;;;;44.00;6.78;;;;;;;;;;5032869;28;20021;-64
2022/12/24 06:16:41;;;;;;;42.03;6.85;;;;;;;;;;5032413;28;20087;-64
2022/12/24 06:19:07;;;;;;;53.95;7.88;;;;;;;;;;5032556;28;20109;-64
2022/12/24 06:21:33;;;;;;;43.83;6.00;;;;;;;;;;5032537;28;20036;-64
2022/12/24 06:24:00;;;;;;;40.63;5.72;;;;;;;;;;5031534;28;20079;-64
2022/12/24 06:26:26;;;;;;;37.85;6.53;;;;;;;;;;5032681;28;20065;-64
2022/12/24 06:28:52;;;;;;;30.40;6.03;;;;;;;;;;5032635;28;20083;-64
2022/12/24 06:31:19;;;;;;;41.08;7.22;;;;;;;;;;5032738;28;20037;-64
2022/12/24 06:33:45;;;;;;;39.75;6.18;;;;;;;;;;5031502;28;20057;-64
2022/12/24 06:36:13;;;;;;;23.23;5.80;;;;;;;;;;5032376;28;20037;-64
2022/12/24 06:38:41;;;;;;;33.47;8.50;;;;;;;;;;5032318;28;20091;-64
2022/12/24 06:41:07;;;;;;;34.05;6.22;;;;;;;;;;5032573;28;20465;-64
2022/12/24 06:43:34;;;;;;;31.13;6.47;;;;;;;;;;5032296;28;20043;-64
2022/12/24 06:46:01;;;;;;;42.08;7.00;;;;;;;;;;5032401;28;20034;-64
2022/12/24 06:48:27;;;;;;;42.25;6.35;;;;;;;;;;5032038;28;20517;-64
2022/12/24 06:50:53;;;;;;;37.90;6.05;;;;;;;;;;5032259;28;20029;-64
2022/12/24 06:53:19;;;;;;;40.58;7.32;;;;;;;;;;5032504;28;20022;-64
2022/12/24 06:55:45;;;;;;;36.50;6.43;;;;;;;;;;5031711;28;20473;-64
2022/12/24 06:58:12;;;;;;;31.08;6.80;;;;;;;;;;5032485;28;20033;-64
2022/12/24 07:00:38;;;;;;;39.85;5.65;;;;;;;;;;5032029;28;20025;-64
2022/12/24 07:03:04;;;;;;;20.25;5.25;;;;;;;;;;5031810;28;20401;-64
2022/12/24 07:05:30;;;;;;;40.30;6.38;;;;;;;;;;5032289;28;20034;-64
2022/12/24 07:07:56;;;;;;;32.75;5.78;;;;;;;;;;5031842;28;20027;-64
2022/12/24 07:10:22;;;;;;;33.30;6.00;;;;;;;;;;5032167;28;20498;-64
2022/12/24 07:12:48;;;;;;;27.90;4.75;;;;;;;;;;5031973;28;20032;-64
2022/12/24 07:15:15;;;;;;;36.97;5.18;;;;;;;;;;5032027;28;20034;-64
2022/12/24 07:17:42;;;;;;;42.92;6.57;;;;;;;;;;5031622;28;20064;-64
2022/12/24 07:20:09;;;;;;;49.10;7.25;;;;;;;;;;5034766;28;20473;-64
2022/12/24 07:22:36;;;;;;;41.03;7.10;;;;;;;;;;5035991;28;20497;-64
2022/12/24 07:25:02;;;;;;;38.47;7.72;;;;;;;;;;5035242;28;20029;-64
2022/12/24 07:27:28;;;;;;;45.17;6.28;;;;;;;;;;5026293;28;20464;-64
2022/12/24 07:29:54;;;;;;;38.00;5.32;;;;;;;;;;5015990;28;20030;-64
2022/12/24 07:32:20;;;;;;;23.05;4.60;;;;;;;;;;5023892;28;20029;-64
2022/12/24 07:34:46;;;;;;;27.45;6.32;;;;;;;;;;5032044;28;20478;-64
2022/12/24 07:37:12;;;;;;;27.25;5.85;;;;;;;;;;5033724;28;20089;-64
2022/12/24 07:39:39;;;;;;;32.70;5.68;;;;;;;;;;5034987;28;20021;-64
2022/12/24 07:42:06;;;;;;;31.92;5.85;;;;;;;;;;5035430;28;20136;-64
2022/12/24 07:44:34;;;;;;;24.58;4.68;;;;;;;;;;5033635;28;20025;-64
2022/12/24 07:47:00;;;;;;;42.08;5.38;;;;;;;;;;5024537;28;20111;-64
2022/12/24 07:49:27;;;;;;;31.95;5.15;;;;;;;;;;5025183;28;20358;-64
2022/12/24 07:51:54;;;;;;;31.77;5.55;;;;;;;;;;5023662;28;20029;-64
2022/12/24 07:54:20;;;;;;;22.05;5.78;;;;;;;;;;5027368;28;20030;-64
2022/12/24 07:56:46;;;;;;;33.80;5.63;;;;;;;;;;5024884;28;20053;-64
2022/12/24 07:59:13;;;;;;;22.20;4.15;;;;;;;;;;5027051;28;20033;-64
2022/12/24 08:01:39;;;;;;;30.20;4.95;;;;;;;;;;5024750;28;20014;-64
2022/12/24 08:04:05;;;;;;;35.38;6.55;;;;;;;;;;5024970;28;20026;-64
2022/12/24 08:06:31;;;;;;;32.88;6.20;;;;;;;;;;5025530;28;20034;-64
2022/12/24 08:08:57;;;;;;;37.50;5.35;;;;;;;;;;5023944;28;20523;-64
2022/12/24 08:11:23;;;;;;;40.00;7.47;;;;;;;;;;5033174;28;20029;-64
2022/12/24 08:13:50;;;;;;;23.42;4.72;;;;;;;;;;5024566;28;20021;-64
2022/12/24 08:16:16;;;;;;;20.67;4.28;;;;;;;;;;5023814;28;20022;-64
2022/12/24 08:18:42;;;;;;;29.65;5.80;;;;;;;;;;5024333;28;20057;-64
2022/12/24 08:21:09;;;;;;;21.13;4.97;;;;;;;;;;5021818;28;20112;-64
2022/12/24 08:23:38;;;;;;;35.35;5.50;;;;;;;;;;5024703;28;20018;-63
2022/12/24 08:26:07;;;;;;;36.30;5.68;;;;;;;;;;5024282;28;20037;-64
2022/12/24 08:28:33;;;;;;;24.42;5.55;;;;;;;;;;5023915;28;20026;-64
2022/12/24 08:30:59;;;;;;;30.58;6.22;;;;;;;;;;5025662;28;20107;-65
2022/12/24 08:33:25;;;;;;;41.22;7.20;;;;;;;;;;5033058;28;20053;-64
2022/12/24 08:35:54;;;;;;;29.58;6.45;;;;;;;;;;5032274;28;20108;-64
2022/12/24 08:38:20;;;;;;;28.05;5.53;;;;;;;;;;5025557;28;20075;-63
2022/12/24 08:40:48;;;;;;;31.50;5.32;;;;;;;;;;5035265;28;20398;-63
2022/12/24 08:43:15;;;;;;;34.58;6.03;;;;;;;;;;5034158;28;20159;-63
2022/12/24 08:45:41;;;;;;;46.30;9.38;;;;;;;;;;5034156;28;20096;-63
2022/12/24 08:48:07;;;;;;;44.35;9.52;;;;;;;;;;5033893;28;20055;-63
2022/12/24 08:50:34;;;;;;;44.20;6.05;;;;;;;;;;5034367;28;20025;-63
2022/12/24 08:53:00;;;;;;;36.10;6.70;;;;;;;;;;5033216;28;20481;-62
2022/12/24 08:55:26;;;;;;;38.92;6.85;;;;;;;;;;5034303;28;20037;-62
2022/12/24 08:57:52;;;;;;;42.30;6.53;;;;;;;;;;5033638;28;20033;-63
2022/12/24 09:00:18;;;;;;;44.25;6.40;;;;;;;;;;5035477;28;20022;-63
2022/12/24 09:02:44;;;;;;;48.13;7.25;;;;;;;;;;5040742;28;20036;-63
2022/12/24 09:05:10;;;;;;;49.42;7.60;;;;;;;;;;5036771;28;20048;-63
2022/12/24 09:07:36;;;;;;;41.97;7.90;;;;;;;;;;5033792;28;20021;-62
2022/12/24 09:10:03;;;;;;;48.28;7.93;;;;;;;;;;5037340;28;20033;-63
2022/12/24 09:12:29;;;;;;;45.65;7.50;;;;;;;;;;5029376;28;20033;-62
2022/12/24 09:14:55;;;;;;;53.70;11.70;;;;;;;;;;5038689;28;20079;-62
2022/12/24 09:17:21;;;;;;;46.83;7.22;;;;;;;;;;5040842;28;20034;-63
2022/12/24 09:19:47;;;;;;;54.15;8.23;;;;;;;;;;5027593;28;20017;-63
2022/12/24 09:22:14;;;;;;;53.42;8.55;;;;;;;;;;5032479;28;20100;-63
2022/12/24 09:24:40;;;;;;;53.30;7.40;;;;;;;;;;5032380;28;20076;-67
2022/12/24 09:27:06;;;;;;;44.15;6.20;;;;;;;;;;5030987;28;20068;-63
2022/12/24 09:29:32;;;;;;;47.97;7.93;;;;;;;;;;5033172;28;20091;-65
2022/12/24 09:31:59;;;;;;;41.13;6.57;;;;;;;;;;5033069;28;20112;-65
2022/12/24 09:34:25;;;;;;;48.55;6.10;;;;;;;;;;5033134;28;20413;-65
2022/12/24 09:36:53;;;;;;;41.25;6.15;;;;;;;;;;5032838;28;20038;-73
2022/12/24 09:39:19;;;;;;;36.92;5.93;;;;;;;;;;5022987;28;20013;-65
2022/12/24 09:41:48;;;;;;;48.95;6.78;;;;;;;;;;5021693;28;20109;-68
2022/12/24 09:44:35;;;;;;;48.40;7.18;;;;;;;;;;5024946;28;20037;-65
2022/12/24 09:47:03;;;;;;;41.95;6.25;;;;;;;;;;5050903;28;20044;-65
2022/12/24 09:49:36;;;;;;;32.08;7.40;;;;;;;;;;5050698;28;20500;-65
2022/12/24 09:52:06;;;;;;;46.97;6.90;;;;;;;;;;5033569;28;20033;-65
2022/12/24 09:54:35;;;;;;;40.83;7.20;;;;;;;;;;5038814;28;20037;-65
2022/12/24 09:57:04;;;;;;;46.00;6.45;;;;;;;;;;5050889;28;20043;-65
2022/12/24 09:59:44;;;;;;;45.08;8.15;;;;;;;;;;5051226;28;20074;-65
2022/12/24 10:02:12;;;;;;;49.85;6.22;;;;;;;;;;5050765;28;20041;-65
2022/12/24 10:04:38;;;;;;;37.33;5.95;;;;;;;;;;5047495;28;20048;-65
2022/12/24 10:07:07;;;;;;;42.33;7.57;;;;;;;;;;5050874;28;20039;-65
2022/12/24 10:09:42;;;;;;;36.17;5.80;;;;;;;;;;5049715;28;20032;-65
2022/12/24 10:12:15;;;;;;;31.73;5.57;;;;;;;;;;5050777;28;20508;-65
2022/12/24 10:14:59;;;;;;;32.50;4.88;;;;;;;;;;5050806;28;20064;-65
2022/12/24 10:17:44;;;;;;;31.83;4.28;;;;;;;;;;5051124;28;20048;-65
2022/12/24 10:20:28;;;;;;;24.98;4.10;;;;;;;;;;5050978;28;20087;-65
2022/12/24 10:23:13;;;;;;;22.83;3.65;;;;;;;;;;5049207;28;20135;-65
2022/12/24 10:25:54;;;;;;;28.90;4.25;;;;;;;;;;5033081;28;20029;-65
2022/12/24 10:28:29;;;;;;;19.95;3.22;;;;;;;;;;5032906;28;20041;-64
2022/12/24 10:30:57;;;;;;;23.88;3.25;;;;;;;;;;5032312;28;20120;-64
2022/12/24 10:33:47;;;;;;;25.58;2.88;;;;;;;;;;5038597;28;20053;-64
2022/12/24 10:36:17;;;;;;;13.95;2.83;;;;;;;;;;5032520;28;20041;-64
2022/12/24 10:38:44;;;;;;;15.85;3.55;;;;;;;;;;5032209;28;20026;-65
2022/12/24 10:41:10;;;;;;;17.80;4.45;;;;;;;;;;5031347;28;20029;-65
2022/12/24 10:43:38;;;;;;;18.83;3.22;;;;;;;;;;5031726;28;20033;-65
2022/12/24 10:46:06;;;;;;;14.68;2.70;;;;;;;;;;5032446;28;20045;-65
2022/12/24 10:48:37;;;;;;;19.63;2.88;;;;;;;;;;5031731;28;20412;-65
2022/12/24 10:51:06;;;;;;;16.10;3.65;;;;;;;;;;5031776;28;20512;-65
2022/12/24 10:53:44;;;;;;;11.23;3.13;;;;;;;;;;5020137;28;20121;-65
2022/12/24 10:56:11;;;;;;;11.65;2.50;;;;;;;;;;5012438;28;20041;-65
2022/12/24 10:58:42;;;;;;;19.15;2.53;;;;;;;;;;5011474;28;20083;-65
2022/12/24 11:01:08;;;;;;;12.32;2.65;;;;;;;;;;5030822;28;20029;-65
2022/12/24 11:03:36;;;;;;;9.98;2.67;;;;;;;;;;5026097;28;20525;-65
2022/12/24 11:06:10;;;;;;;10.35;2.03;;;;;;;;;;5030713;28;20390;-65
2022/12/24 11:08:39;;;;;;;14.90;2.85;;;;;;;;;;5030422;28;20116;-65
2022/12/24 11:11:24;;;;;;;15.82;2.60;;;;;;;;;;5030815;28;20493;-65
2022/12/24 11:13:50;;;;;;;15.60;2.58;;;;;;;;;;5029575;28;20038;-65
2022/12/24 11:16:25;;;;;;;13.85;3.47;;;;;;;;;;5026834;28;20068;-64
2022/12/24 11:18:53;;;;;;;14.18;3.38;;;;;;;;;;5026986;28;20022;-65
2022/12/24 11:21:25;;;;;;;8.90;2.10;;;;;;;;;;5029899;28;20115;-65
2022/12/24 11:23:53;;;;;;;11.45;2.40;;;;;;;;;;5018113;28;20029;-65
2022/12/24 11:26:23;;;;;;;13.75;2.55;;;;;;;;;;5019174;28;20573;-65
2022/12/24 11:29:08;;;;;;;12.02;2.05;;;;;;;;;;5018865;28;20490;-65
2022/12/24 11:31:37;;;;;;;11.05;2.28;;;;;;;;;;5017436;28;20108;-64
2022/12/24 11:34:17;;;;;;;13.35;2.10;;;;;;;;;;5024269;28;20049;-65
2022/12/24 11:36:44;;;;;;;10.05;1.75;;;;;;;;;;5022961;28;20036;-65
2022/12/24 11:39:17;;;;;;;10.65;1.88;;;;;;;;;;5024971;28;20034;-65
2022/12/24 11:41:43;;;;;;;10.45;2.47;;;;;;;;;;5023673;28;20520;-65
2022/12/24 11:44:10;;;;;;;8.85;1.90;;;;;;;;;;5025167;28;20024;-65
2022/12/24 11:46:40;;;;;;;7.60;1.77;;;;;;;;;;5023914;28;20548;-65
2022/12/24 11:49:12;;;;;;;7.03;2.05;;;;;;;;;;5026928;28;20041;-65
2022/12/24 11:51:39;;;;;;;7.60;2.03;;;;;;;;;;5022507;28;20053;-65
2022/12/24 11:54:14;;;;;;;7.93;1.73;;;;;;;;;;5020550;28;20524;-65
2022/12/24 11:56:44;;;;;;;5.40;2.00;;;;;;;;;;5028672;28;20029;-65
2022/12/24 11:59:29;;;;;;;8.07;1.92;;;;;;;;;;5029031;28;20482;-65
2022/12/24 12:01:58;;;;;;;8.70;2.00;;;;;;;;;;5029931;28;20038;-65
2022/12/24 12:04:27;;;;;;;7.93;1.83;;;;;;;;;;5027522;28;20017;-65
2022/12/24 12:06:57;;;;;;;10.32;1.85;;;;;;;;;;5032433;28;20533;-65
2022/12/24 12:09:32;;;;;;;11.20;2.00;;;;;;;;;;5031941;28;20064;-65
2022/12/24 12:12:01;;;;;;;8.82;1.50;;;;;;;;;;5032872;28;20036;-65
2022/12/24 12:14:31;;;;;;;9.45;1.90;;;;;;;;;;5028432;28;20041;-65
2022/12/24 12:17:13;;;;;;;9.05;1.77;;;;;;;;;;5030883;28;20124;-65
2022/12/24 12:19:45;;;;;;;6.20;1.48;;;;;;;;;;5033985;28;20021;-65
2022/12/24 12:22:18;;;;;;;12.93;2.25;;;;;;;;;;5029471;28;20030;-65
2022/12/24 12:24:48;;;;;;;5.43;1.70;;;;;;;;;;5030675;28;20025;-65
2022/12/24 12:27:15;;;;;;;9.50;1.90;;;;;;;;;;5025299;28;20477;-66
2022/12/24 12:29:46;;;;;;;7.93;1.30;;;;;;;;;;5020712;28;20017;-66
2022/12/24 12:32:20;;;;;;;5.45;1.75;;;;;;;;;;5021028;28;20034;-65
2022/12/24 12:34:55;;;;;;;6.53;1.30;;;;;;;;;;5022886;28;20033;-65
2022/12/24 12:37:28;;;;;;;7.25;1.67;;;;;;;;;;5020075;28;20036;-65
2022/12/24 12:39:54;;;;;;;5.47;1.63;;;;;;;;;;5029102;28;20065;-66
2022/12/24 12:42:34;;;;;;;5.20;1.30;;;;;;;;;;5030182;28;20017;-66
2022/12/24 12:45:06;;;;;;;11.30;1.63;;;;;;;;;;5028605;28;20045;-66
2022/12/24 12:47:44;;;;;;;3.50;1.10;;;;;;;;;;5029692;28;20029;-66
2022/12/24 12:50:17;;;;;;;7.57;1.60;;;;;;;;;;5026752;28;20064;-66
2022/12/24 12:53:02;;;;;;;3.55;1.33;;;;;;;;;;5029330;28;20037;-66
2022/12/24 12:55:31;;;;;;;3.17;1.40;;;;;;;;;;5025959;28;20080;-66
2022/12/24 12:58:00;;;;;;;5.57;1.50;;;;;;;;;;5027335;28;20096;-66
2022/12/24 13:00:29;;;;;;;4.18;1.33;;;;;;;;;;5023911;28;20477;-66
2022/12/24 13:03:13;;;;;;;6.78;1.30;;;;;;;;;;5027208;28;20052;-66
2022/12/24 13:05:43;;;;;;;3.33;1.10;;;;;;;;;;5023852;28;20040;-66
2022/12/24 13:08:18;;;;;;;8.25;1.60;;;;;;;;;;5023741;28;20025;-66
2022/12/24 13:10:57;;;;;;;4.20;1.10;;;;;;;;;;5022732;28;20044;-66
2022/12/24 13:13:39;;;;;;;5.50;1.38;;;;;;;;;;5027883;28;20021;-66
2022/12/24 13:16:08;;;;;;;6.40;1.60;;;;;;;;;;5026544;28;20044;-65
2022/12/24 13:18:46;;;;;;;5.97;1.40;;;;;;;;;;5028592;28;20036;-65
2022/12/24 13:21:31;;;;;;;4.53;1.00;;;;;;;;;;5024367;28;20405;-65
2022/12/24 13:24:07;;;;;;;12.20;1.77;;;;;;;;;;5026956;28;20398;-66
2022/12/24 13:26:33;;;;;;;6.60;1.17;;;;;;;;;;5027255;28;20797;-66
2022/12/24 13:29:18;;;;;;;2.33;0.98;;;;;;;;;;5026259;28;20166;-66
2022/12/24 13:31:44;;;;;;;2.10;1.05;;;;;;;;;;5024973;28;20441;-66
2022/12/24 13:34:30;;;;;;;3.88;1.02;;;;;;;;;;5026306;28;20049;-66
2022/12/24 13:37:02;;;;;;;4.95;1.38;;;;;;;;;;5013120;28;20434;-66
2022/12/24 13:39:29;;;;;;;4.38;1.13;;;;;;;;;;5022081;28;20025;-66
2022/12/24 13:41:55;;;;;;;6.47;1.52;;;;;;;;;;5023256;28;20061;-66
2022/12/24 13:44:22;;;;;;;1.92;1.13;;;;;;;;;;5030295;28;20018;-66
2022/12/24 13:46:56;;;;;;;3.80;1.10;;;;;;;;;;5025953;28;20025;-66
2022/12/24 13:49:36;;;;;;;7.13;1.40;;;;;;;;;;5011567;28;20029;-66
2022/12/24 13:52:08;;;;;;;4.22;1.17;;;;;;;;;;5013288;28;20033;-66
2022/12/24 13:54:35;;;;;;;7.63;1.50;;;;;;;;;;5014129;28;20030;-66
2022/12/24 13:57:01;;;;;;;3.70;1.00;;;;;;;;;;5018864;28;20029;-66
2022/12/24 13:59:38;;;;;;;4.72;0.95;;;;;;;;;;5023647;28;20036;-66
2022/12/24 14:02:05;;;;;;;5.63;1.40;;;;;;;;;;5018732;28;20125;-66
2022/12/24 14:04:34;;;;;;;2.95;0.80;;;;;;;;;;5021271;28;20014;-66
2022/12/24 14:07:02;;;;;;;4.03;0.88;;;;;;;;;;5018789;28;20079;-65
2022/12/24 14:09:29;;;;;;;3.17;0.80;;;;;;;;;;5029342;28;20022;-65
2022/12/24 14:11:58;;;;;;;8.05;1.00;;;;;;;;;;5028934;28;20049;-65
2022/12/24 14:14:35;;;;;;;2.15;1.05;;;;;;;;;;5030495;28;20032;-65
2022/12/24 14:17:02;;;;;;;3.63;1.00;;;;;;;;;;5019728;28;20449;-65
2022/12/24 14:19:31;;;;;;;3.05;1.05;;;;;;;;;;5024384;28;20066;-65
2022/12/24 14:22:02;;;;;;;2.58;0.80;;;;;;;;;;5018848;28;20493;-66
2022/12/24 14:24:33;;;;;;;3.95;1.00;;;;;;;;;;5021617;28;20021;-66
2022/12/24 14:27:06;;;;;;;3.20;0.85;;;;;;;;;;5021623;28;20038;-66
2022/12/24 14:29:33;;;;;;;4.38;1.27;;;;;;;;;;5021378;28;20266;-66
2022/12/24 14:32:03;;;;;;;2.13;1.10;;;;;;;;;;5021299;28;20052;-66
2022/12/24 14:34:29;;;;;;;3.28;1.20;;;;;;;;;;5017288;28;20452;-66
2022/12/24 14:36:56;;;;;;;5.13;1.10;;;;;;;;;;5022873;28;20071;-66
2022/12/24 14:39:30;;;;;;;3.55;0.93;;;;;;;;;;5029254;28;20239;-66
2022/12/24 14:42:04;;;;;;;4.60;1.02;;;;;;;;;;5030972;28;20033;-66
2022/12/24 14:44:36;;;;;;;5.68;1.35;;;;;;;;;;5026575;28;20492;-66
2022/12/24 14:47:21;;;;;;;4.03;0.93;;;;;;;;;;5025864;28;20045;-66
2022/12/24 14:49:58;;;;;;;4.43;1.10;;;;;;;;;;5026789;28;20477;-66
2022/12/24 14:52:34;;;;;;;5.15;1.50;;;;;;;;;;5023785;28;20509;-66
2022/12/24 14:55:20;;;;;;;3.50;1.20;;;;;;;;;;5027375;28;20486;-66
2022/12/24 14:57:47;;;;;;;3.50;1.27;;;;;;;;;;5020263;28;20064;-66